EDDC Airport Information

Runway Information
Runway 04 Length 8228 ft width 167 ft
Elevation 755 ft Threshold 0 ft Heading 41
Runway 22 Length 8228 ft Width 167 ft
Elevation 703 ft Threshold 0 ft Heading 221
Airport Frequencies
Type AFIS Name MUNCHEN IN Frequency 125.8 MHZ
Type APP Name MUNCHEN RA Frequency 125.625 MHZ
Type ATIS Name ATIS Frequency 118.875 MHZ
Type GND Name GND Frequency 121.9 MHZ
Type RMP Name APRON Frequency 121.75 MHZ
Type TWR Name TWR Frequency 119.7 MHZ
Airport Navaids
Type DME Name Dresden Frequency 115400 KHZ
Type VOR-DME Name Dresden Frequency 114350 KHZ
Airport Weather Information & NOTAM
ADDS - METARS form results

(2159 UTC 23 February 2019)
Data provider http://aviationweather.gov/metar/data/
 
METAR text: EDDC 232150Z 18003KT CAVOK M02/M09 Q1039
Conditions at: EDDC (DRESDEN/KLOTZSCH, DE) observed 2150 UTC 23 February 2019
Temperature: -2.0°C (28°F)
Dewpoint: -9.0°C (16°F) [RH = 59%]
Pressure (altimeter): 30.68 inches Hg (1039.0 mb)
Winds: from the S (180 degrees) at 3 MPH (3 knots; 1.5 m/s)
Visibility: 6 or more miles (10+ km)
Ceiling: ceiling and visibility are OK
Clouds: unknown
Weather: no significant weather observed at this time

METAR text: EDDC 232120Z 17006KT CAVOK M02/M10 Q1040
Conditions at: EDDC (DRESDEN/KLOTZSCH, DE) observed 2120 UTC 23 February 2019
Temperature: -2.0°C (28°F)
Dewpoint: -10.0°C (14°F) [RH = 54%]
Pressure (altimeter): 30.71 inches Hg (1040.0 mb)
Winds: from the S (170 degrees) at 7 MPH (6 knots; 3.1 m/s)
Visibility: 6 or more miles (10+ km)
Ceiling: ceiling and visibility are OK
Clouds: unknown
Weather: no significant weather observed at this time

Forecast for: EDDC (DRESDEN/KLOTZSCH, DE)
Text: TAF EDDC 231700Z 2318/2418 16006KT CAVOK
Forecast period: 1800 UTC 23 February 2019 to 0800 UTC 24 February 2019
Forecast type: FROM: standard forecast or significant change
Winds: from the SSE (160 degrees) at 7 MPH (6 knots; 3.1 m/s)
Visibility: 6 or more miles 10+ km)
Ceiling: unknown
Clouds: missing
Weather: NSW  (no significant weather)
Text: BECMG 2408/2410 29004KT
Forecast period: 0800 to 1800 UTC 24 February 2019
Forecast type: BECOMING: Conditions expected to become as follows by 1000 UTC 24 February 2019
Winds: from the WNW (290 degrees) at 5 MPH (4 knots; 2.1 m/s)
Visibility: 6 or more miles 10+ km)
Ceiling: unknown
Clouds: missing
Weather: NSW  (no significant weather)